Aspen Park, Colorado
Current Conditions -  °F | °C
As of 6:53 AM on Thursday 27 Nov 2014 (Local Time) from KAPA Reporting Station
Broken Clouds Broken Clouds  
Wind Chill: 38°   Ceiling: 22000
Heat Index: 43°   Visibility: 10mi
Dew Point: 16°   Wind: 9mph
Humidity: 34%   Direction: 160°SSE
Pressure: 30.24"   Gusts: NA
Location:  39.4975°N, 105.289°W
Report Text: KAPA 271353Z 16008KT 10SM FEW110 SCT140 BKN220 06/M09 A3024 RMK AO2 SLP246 ACSL SW-W T00611089
Loading
Personal Weather Stations






























Interactive Weather Map New forecast layout! Learn more

10-Day Weather Forecast

Advertisements
Track Severe Weather on mobile